Time;durP1;ratioP1;P1;durP2;ratioP2;P2;SDS_P1;SDS_P2;PMS_P1;PMS_P2;Temp;Humidity;BMP_temperature;BMP_pressure;BME280_temperature;BME280_humidity;BME280_pressure;Samples;Min_cycle;Max_cycle;Signal;HPM_P1;HPM_P2
2023/11/21 00:00:24;;;;;;;6.50;2.20;;;;;;;7.68;100.00;96203.06;5046403;28;20487;-70
2023/11/21 00:02:50;;;;;;;9.95;2.25;;;;;;;7.65;100.00;96204.56;5070194;28;20082;-70
2023/11/21 00:05:16;;;;;;;17.08;3.80;;;;;;;7.52;100.00;96198.47;5071557;28;20150;-70
2023/11/21 00:07:42;;;;;;;19.52;3.03;;;;;;;7.44;100.00;96196.78;5060981;28;20442;-68
2023/11/21 00:10:10;;;;;;;11.40;3.15;;;;;;;7.31;100.00;96198.84;5056597;28;20054;-68
2023/11/21 00:12:36;;;;;;;11.45;2.50;;;;;;;7.28;100.00;96191.38;5064818;28;20044;-69
2023/11/21 00:15:02;;;;;;;7.68;1.90;;;;;;;7.23;100.00;96176.09;5062580;28;20067;-69
2023/11/21 00:17:28;;;;;;;10.32;1.90;;;;;;;7.31;100.00;96178.97;5059842;28;20442;-72
2023/11/21 00:19:53;;;;;;;8.18;1.60;;;;;;;7.33;100.00;96171.22;5068678;28;20036;-71
2023/11/21 00:22:19;;;;;;;8.63;1.88;;;;;;;7.41;100.00;96164.78;5062601;28;20085;-71
2023/11/21 00:24:45;;;;;;;12.70;2.28;;;;;;;7.24;100.00;96166.78;5055453;28;20424;-70
2023/11/21 00:27:10;;;;;;;15.15;2.10;;;;;;;7.13;100.00;96163.06;5072978;28;20069;-71
2023/11/21 00:29:36;;;;;;;14.40;2.05;;;;;;;7.03;100.00;96169.06;5061571;28;20098;-68
2023/11/21 00:32:01;;;;;;;8.82;1.58;;;;;;;7.00;100.00;96170.53;5060777;28;20055;-70
2023/11/21 00:34:27;;;;;;;12.25;2.50;;;;;;;7.03;100.00;96175.28;5056318;28;20133;-70
2023/11/21 00:36:52;;;;;;;12.45;2.58;;;;;;;6.94;100.00;96169.25;5060933;28;20040;-70
2023/11/21 00:39:18;;;;;;;11.80;3.25;;;;;;;6.91;100.00;96169.97;5056646;28;20039;-69
2023/11/21 00:41:44;;;;;;;17.52;4.25;;;;;;;6.93;100.00;96169.59;5041830;28;20040;-71
2023/11/21 00:44:11;;;;;;;8.93;2.47;;;;;;;6.84;100.00;96173.34;5056572;28;20040;-70
2023/11/21 00:46:36;;;;;;;13.43;2.35;;;;;;;6.78;100.00;96165.78;5060328;28;20139;-70
2023/11/21 00:49:04;;;;;;;9.50;1.95;;;;;;;6.73;100.00;96166.06;5058623;28;20135;-69
2023/11/21 00:51:30;;;;;;;15.55;2.33;;;;;;;6.80;100.00;96158.84;5060542;28;20052;-71
2023/11/21 00:53:55;;;;;;;11.23;2.00;;;;;;;6.80;100.00;96155.34;5060211;28;20048;-70
2023/11/21 00:56:21;;;;;;;15.27;2.60;;;;;;;6.83;100.00;96158.13;5037348;28;20055;-71
2023/11/21 00:58:49;;;;;;;14.02;2.25;;;;;;;6.80;100.00;96164.28;5059731;28;20143;-69
2023/11/21 01:01:15;;;;;;;10.98;2.20;;;;;;;6.78;100.00;96163.84;5054814;28;20127;-70
2023/11/21 01:03:41;;;;;;;12.20;2.30;;;;;;;6.81;100.00;96165.09;5060201;28;20036;-70
2023/11/21 01:06:07;;;;;;;13.73;2.35;;;;;;;6.84;100.00;96150.75;5063878;28;20040;-69
2023/11/21 01:08:32;;;;;;;7.47;2.22;;;;;;;6.87;100.00;96144.59;5068978;28;20059;-69
2023/11/21 01:10:58;;;;;;;11.45;2.30;;;;;;;6.74;100.00;96154.03;5060705;28;20483;-70
2023/11/21 01:13:23;;;;;;;7.32;2.17;;;;;;;6.76;100.00;96149.03;5059116;28;20542;-70
2023/11/21 01:15:49;;;;;;;6.78;1.50;;;;;;;6.84;100.00;96159.72;5075213;28;20060;-70
2023/11/21 01:18:14;;;;;;;10.75;1.92;;;;;;;6.93;100.00;96156.78;5038842;28;20040;-70
2023/11/21 01:20:40;;;;;;;5.97;1.55;;;;;;;6.92;100.00;96152.50;5059538;28;20048;-71
2023/11/21 01:23:05;;;;;;;8.82;1.73;;;;;;;6.95;100.00;96153.72;5058782;28;20044;-69
2023/11/21 01:25:30;;;;;;;13.25;1.92;;;;;;;6.99;100.00;96157.31;5062278;28;20036;-69
2023/11/21 01:27:56;;;;;;;10.93;1.88;;;;;;;6.96;100.00;96158.78;5060883;28;20499;-70
2023/11/21 01:30:21;;;;;;;10.93;1.88;;;;;;;6.97;100.00;96163.13;5056326;28;20510;-70
2023/11/21 01:32:47;;;;;;;12.38;1.95;;;;;;;6.98;100.00;96161.16;5059601;28;20131;-70
2023/11/21 01:35:13;;;;;;;7.28;1.92;;;;;;;6.95;100.00;96164.59;5054298;28;20039;-69
2023/11/21 01:37:38;;;;;;;7.07;2.25;;;;;;;6.97;100.00;96154.94;5059379;28;20417;-70
2023/11/21 01:40:09;;;;;;;5.38;1.63;;;;;;;6.96;100.00;96155.28;5055686;28;20198;-69
2023/11/21 01:42:34;;;;;;;8.77;2.17;;;;;;;7.03;100.00;96164.41;5058913;28;20040;-69
2023/11/21 01:45:04;;;;;;;8.93;1.88;;;;;;;6.99;100.00;96160.81;5058888;28;20503;-70
2023/11/21 01:47:30;;;;;;;;;;;;;;;6.95;100.00;96154.50;5059635;28;20451;-69
2023/11/21 01:49:55;;;;;;;7.88;1.75;;;;;;;6.99;100.00;96155.38;5059528;28;20003;-69
2023/11/21 01:52:20;;;;;;;7.20;1.92;;;;;;;6.94;100.00;96161.09;5053988;28;20049;-69
2023/11/21 01:54:46;;;;;;;10.15;2.00;;;;;;;6.85;100.00;96153.13;5058620;28;20036;-68
2023/11/21 01:57:11;;;;;;;5.60;1.60;;;;;;;6.76;100.00;96151.75;5053750;28;20044;-69
2023/11/21 01:59:38;;;;;;;4.90;1.63;;;;;;;6.83;100.00;96147.25;5058785;28;20495;-70
2023/11/21 02:02:05;;;;;;;11.00;1.80;;;;;;;6.81;100.00;96141.38;5060032;28;20036;-69
2023/11/21 02:04:34;;;;;;;7.88;1.58;;;;;;;6.88;100.00;96144.25;5058768;28;20106;-69
2023/11/21 02:07:00;;;;;;;5.80;1.98;;;;;;;6.86;100.00;96148.47;5058640;28;20041;-69
2023/11/21 02:09:27;;;;;;;7.05;1.80;;;;;;;6.86;100.00;96146.53;5054127;28;20098;-68
2023/11/21 02:11:53;;;;;;;8.80;1.88;;;;;;;6.84;100.00;96137.94;5061501;28;20502;-68
2023/11/21 02:14:21;;;;;;;10.45;1.92;;;;;;;6.79;100.00;96140.94;5053391;28;20407;-68
2023/11/21 02:16:49;;;;;;;9.68;2.10;;;;;;;6.81;100.00;96143.31;5063423;28;20102;-68
2023/11/21 02:19:19;;;;;;;8.98;2.72;;;;;;;6.62;100.00;96141.31;5062394;28;20497;-68
2023/11/21 02:21:45;;;;;;;10.07;2.00;;;;;;;6.56;100.00;96142.75;5058366;28;20147;-68
2023/11/21 02:24:11;;;;;;;9.43;1.98;;;;;;;6.53;100.00;96138.00;5063012;28;20067;-68
2023/11/21 02:26:36;;;;;;;8.68;2.30;;;;;;;6.59;100.00;96133.88;5058774;28;20033;-68
2023/11/21 02:29:04;;;;;;;10.95;1.80;;;;;;;6.69;100.00;96141.50;5058397;28;20036;-68
2023/11/21 02:31:30;;;;;;;7.07;1.90;;;;;;;6.74;100.00;96143.94;5056570;28;20053;-68
2023/11/21 02:33:55;;;;;;;5.30;1.60;;;;;;;6.80;100.00;96137.06;5057834;28;20051;-69
2023/11/21 02:36:21;;;;;;;7.55;1.83;;;;;;;6.79;100.00;96132.78;5055003;28;20420;-69
2023/11/21 02:38:47;;;;;;;9.45;2.42;;;;;;;6.75;100.00;96136.56;5058799;28;20048;-70
2023/11/21 02:41:13;;;;;;;6.78;1.77;;;;;;;6.72;100.00;96124.47;5054588;28;20051;-71
2023/11/21 02:43:38;;;;;;;5.35;1.42;;;;;;;6.84;100.00;96137.94;5039076;28;20123;-71
2023/11/21 02:46:04;;;;;;;6.75;1.73;;;;;;;6.84;100.00;96131.69;5055323;28;20123;-67
2023/11/21 02:48:30;;;;;;;9.85;2.00;;;;;;;6.84;100.00;96131.69;5040688;28;20070;-70
2023/11/21 02:50:56;;;;;;;7.35;1.80;;;;;;;6.80;100.00;96131.63;5056354;28;20048;-69
2023/11/21 02:53:21;;;;;;;7.50;2.35;;;;;;;6.82;100.00;96142.16;5056671;28;20584;-70
2023/11/21 02:55:47;;;;;;;8.15;1.95;;;;;;;6.75;100.00;96140.06;5062255;28;20041;-68
2023/11/21 02:58:12;;;;;;;8.27;1.70;;;;;;;6.75;100.00;96142.78;5062798;28;20409;-70
2023/11/21 03:00:40;;;;;;;9.10;2.00;;;;;;;6.75;100.00;96140.06;5060496;28;20098;-70
2023/11/21 03:03:05;;;;;;;10.10;2.38;;;;;;;6.78;100.00;96144.78;5051750;28;20065;-69
2023/11/21 03:05:30;;;;;;;9.80;1.90;;;;;;;6.79;100.00;96138.22;5053256;28;20082;-70
2023/11/21 03:07:56;;;;;;;5.00;1.58;;;;;;;6.75;100.00;96139.28;5058028;28;20041;-70
2023/11/21 03:10:21;;;;;;;6.57;1.80;;;;;;;6.74;100.00;96145.88;5054450;28;20252;-70
2023/11/21 03:12:47;;;;;;;7.90;1.50;;;;;;;6.66;100.00;96143.00;5064382;28;20141;-70
2023/11/21 03:15:12;;;;;;;11.18;1.88;;;;;;;6.79;100.00;96145.56;5057634;28;20040;-69
2023/11/21 03:17:38;;;;;;;6.50;2.05;;;;;;;6.67;100.00;96144.56;5062404;28;20094;-70
2023/11/21 03:20:04;;;;;;;8.00;1.48;;;;;;;6.58;100.00;96143.97;5058892;28;20048;-70
2023/11/21 03:22:30;;;;;;;7.55;1.60;;;;;;;6.64;100.00;96142.53;5061506;28;20044;-70
2023/11/21 03:24:55;;;;;;;5.53;1.35;;;;;;;6.57;100.00;96147.03;5061375;28;20537;-69
2023/11/21 03:27:21;;;;;;;10.57;1.50;;;;;;;6.62;100.00;96144.06;5056504;28;21519;-69
2023/11/21 03:29:46;;;;;;;6.38;1.25;;;;;;;6.61;100.00;96153.34;5061425;28;20071;-69
2023/11/21 03:32:12;;;;;;;6.53;1.52;;;;;;;6.59;100.00;96150.19;5056448;28;20163;-69
2023/11/21 03:34:57;;;;;;;4.57;0.98;;;;;;;6.39;100.00;96147.44;5061480;28;20033;-69
2023/11/21 03:37:23;;;;;;;4.97;1.00;;;;;;;6.46;100.00;96144.06;5055789;28;20117;-68
2023/11/21 03:39:49;;;;;;;5.80;1.17;;;;;;;6.49;100.00;96146.09;5060506;28;20044;-69
2023/11/21 03:42:14;;;;;;;3.92;1.10;;;;;;;6.43;100.00;96144.78;5056116;28;20029;-69
2023/11/21 03:44:39;;;;;;;7.70;1.17;;;;;;;6.48;100.00;96147.22;5061614;28;20052;-69
2023/11/21 03:47:05;;;;;;;6.25;2.08;;;;;;;6.49;100.00;96146.09;5056172;28;20055;-69
2023/11/21 03:49:30;;;;;;;3.28;1.17;;;;;;;6.41;100.00;96150.59;5061303;28;20064;-70
2023/11/21 03:51:56;;;;;;;9.13;1.20;;;;;;;6.34;100.00;96146.88;5060468;28;20040;-70
2023/11/21 03:54:21;;;;;;;5.38;1.10;;;;;;;6.42;100.00;96146.72;5054641;28;20314;-70
2023/11/21 03:56:47;;;;;;;3.35;1.15;;;;;;;6.31;100.00;96149.19;5061458;28;20056;-71
2023/11/21 03:59:12;;;;;;;5.57;1.20;;;;;;;6.39;100.00;96142.00;5055970;28;20169;-71
2023/11/21 04:01:37;;;;;;;4.18;1.10;;;;;;;6.41;100.00;96145.16;5060214;28;20040;-70
2023/11/21 04:04:04;;;;;;;6.35;1.30;;;;;;;6.40;100.00;96151.72;5056316;28;20078;-70
2023/11/21 04:06:30;;;;;;;9.50;1.50;;;;;;;6.24;100.00;96154.44;5061246;28;20056;-71
2023/11/21 04:08:55;;;;;;;9.48;1.20;;;;;;;6.22;100.00;96147.78;5060996;28;20525;-71
2023/11/21 04:11:20;;;;;;;5.13;1.40;;;;;;;6.27;100.00;96153.75;5055185;28;20048;-70
2023/11/21 04:13:46;;;;;;;8.25;1.73;;;;;;;6.28;100.00;96152.63;5060774;28;20049;-70
2023/11/21 04:16:12;;;;;;;5.38;1.13;;;;;;;6.15;100.00;96153.84;5055274;28;20505;-70
2023/11/21 04:18:38;;;;;;;4.43;1.23;;;;;;;6.00;100.00;96157.34;5060332;28;20098;-70
2023/11/21 04:21:05;;;;;;;3.60;1.13;;;;;;;5.93;100.00;96153.25;5057125;28;20491;-70
2023/11/21 04:23:31;;;;;;;3.80;1.20;;;;;;;5.98;100.00;96156.88;5061289;28;20072;-71
2023/11/21 04:25:57;;;;;;;5.55;1.17;;;;;;;6.07;100.00;96152.09;5060423;28;20083;-70
2023/11/21 04:28:26;;;;;;;3.17;1.27;;;;;;;6.06;100.00;96162.16;5055731;28;20535;-70
2023/11/21 04:30:51;;;;;;;3.00;1.20;;;;;;;5.98;100.00;96163.13;5069403;28;20079;-70
2023/11/21 04:33:17;;;;;;;8.80;1.50;;;;;;;5.92;100.00;96159.03;5056098;28;20127;-69
2023/11/21 04:35:42;;;;;;;3.17;1.17;;;;;;;5.97;100.00;96156.09;5042001;28;20040;-70
2023/11/21 04:38:08;;;;;;;4.35;1.23;;;;;;;6.02;100.00;96144.97;5056628;28;20136;-70
2023/11/21 04:40:33;;;;;;;6.65;1.52;;;;;;;6.02;100.00;96147.69;5062271;28;20102;-70
2023/11/21 04:42:58;;;;;;;9.02;1.27;;;;;;;5.87;100.00;96143.81;5063534;28;20376;-70
2023/11/21 04:45:24;;;;;;;4.32;1.50;;;;;;;5.83;100.00;96148.34;5064124;28;20044;-70
2023/11/21 04:47:50;;;;;;;6.20;1.40;;;;;;;5.76;100.00;96153.59;5061340;28;20570;-69
2023/11/21 04:50:15;;;;;;;2.25;1.20;;;;;;;5.78;100.00;96147.81;5048699;28;20059;-69
2023/11/21 04:52:40;;;;;;;8.32;1.33;;;;;;;5.78;100.00;96147.81;5060167;28;20096;-69
2023/11/21 04:55:09;;;;;;;7.43;1.13;;;;;;;5.92;100.00;96143.56;5038282;28;20121;-70
2023/11/21 04:57:35;;;;;;;5.20;1.33;;;;;;;6.10;100.00;96148.66;5060933;28;20051;-70
2023/11/21 05:00:01;;;;;;;6.25;1.30;;;;;;;6.18;100.00;96150.41;5068015;28;20045;-69
2023/11/21 05:02:26;;;;;;;5.85;1.45;;;;;;;6.12;100.00;96143.66;5054750;28;20047;-69
2023/11/21 05:04:53;;;;;;;2.70;0.93;;;;;;;6.13;100.00;96156.91;5060296;28;20044;-69
2023/11/21 05:07:18;;;;;;;5.43;1.20;;;;;;;6.22;100.00;96150.50;5054571;28;20381;-69
2023/11/21 05:09:46;;;;;;;3.20;1.17;;;;;;;6.31;100.00;96154.63;5066610;28;20055;-69
2023/11/21 05:12:14;;;;;;;7.18;1.25;;;;;;;6.19;100.00;96154.69;5057956;28;20039;-71
2023/11/21 05:14:40;;;;;;;4.53;1.20;;;;;;;6.11;100.00;96158.41;5059853;28;20044;-70
2023/11/21 05:17:05;;;;;;;3.50;1.20;;;;;;;6.18;100.00;96157.78;5054131;28;20198;-70
2023/11/21 05:19:32;;;;;;;4.68;1.23;;;;;;;6.09;100.00;96147.88;5059725;28;20185;-69
2023/11/21 05:21:58;;;;;;;5.10;1.33;;;;;;;6.00;100.00;96149.97;5041356;28;20629;-70
2023/11/21 05:24:24;;;;;;;6.10;1.25;;;;;;;6.04;100.00;96150.84;5056656;28;20141;-69
2023/11/21 05:26:49;;;;;;;2.47;1.02;;;;;;;6.24;100.00;96150.94;5059763;28;20089;-69
2023/11/21 05:29:14;;;;;;;4.03;1.35;;;;;;;6.34;100.00;96155.03;5055830;28;20473;-70
2023/11/21 05:31:40;;;;;;;4.72;1.30;;;;;;;6.55;100.00;96160.22;5063061;28;20058;-70
2023/11/21 05:34:06;;;;;;;4.75;1.10;;;;;;;6.61;100.00;96162.31;5059385;28;20040;-69
2023/11/21 05:36:31;;;;;;;5.45;1.10;;;;;;;6.48;100.00;96169.78;5068379;28;20072;-70
2023/11/21 05:38:56;;;;;;;4.65;1.73;;;;;;;6.55;100.00;96168.38;5066424;28;20039;-70
2023/11/21 05:41:23;;;;;;;8.55;2.38;;;;;;;6.64;100.00;96164.31;5058500;28;20378;-71
2023/11/21 05:43:48;;;;;;;7.85;2.08;;;;;;;6.63;100.00;96170.13;5061237;28;20044;-70
2023/11/21 05:46:14;;;;;;;6.50;1.52;;;;;;;6.61;100.00;96166.94;5053522;28;20044;-70
2023/11/21 05:48:39;;;;;;;2.70;1.23;;;;;;;6.59;100.00;96171.97;5059084;28;20043;-69
2023/11/21 05:51:06;;;;;;;4.63;1.20;;;;;;;6.48;100.00;96177.97;5054062;28;20076;-69
2023/11/21 05:53:31;;;;;;;3.33;1.48;;;;;;;6.34;100.00;96174.91;5058812;28;20119;-70
2023/11/21 05:55:56;;;;;;;8.63;1.38;;;;;;;6.46;100.00;96176.72;5058406;28;20076;-71
2023/11/21 05:58:22;;;;;;;5.13;1.23;;;;;;;6.52;100.00;96175.31;5054128;28;20479;-70
2023/11/21 06:00:48;;;;;;;3.72;1.58;;;;;;;6.51;100.00;96181.88;5041491;28;20040;-70
2023/11/21 06:03:13;;;;;;;3.97;1.30;;;;;;;6.55;100.00;96182.75;5055198;28;20529;-70
2023/11/21 06:05:39;;;;;;;6.47;1.70;;;;;;;6.57;100.00;96179.69;5058985;28;20036;-70
2023/11/21 06:08:04;;;;;;;5.90;1.33;;;;;;;6.50;100.00;96192.00;5055587;28;20455;-69
2023/11/21 06:10:30;;;;;;;3.33;1.27;;;;;;;6.49;100.00;96186.91;5059443;28;20041;-69
2023/11/21 06:12:55;;;;;;;4.32;1.30;;;;;;;6.45;100.00;96188.75;5062979;28;20056;-69
2023/11/21 06:15:22;;;;;;;6.13;1.33;;;;;;;6.43;100.00;96204.63;5054211;28;20466;-71
2023/11/21 06:17:52;;;;;;;3.83;1.25;;;;;;;6.56;100.00;96197.16;5040947;28;20047;-69
2023/11/21 06:20:18;;;;;;;7.05;2.28;;;;;;;6.45;100.00;96197.69;5035250;28;20445;-68
2023/11/21 06:22:50;;;;;;;3.72;1.60;;;;;;;6.42;100.00;96197.59;5058693;28;20060;-68
2023/11/21 06:25:15;;;;;;;5.70;1.58;;;;;;;6.41;100.00;96196.81;5040423;28;20070;-69
2023/11/21 06:27:46;;;;;;;7.50;1.70;;;;;;;6.46;100.00;96203.91;5064877;28;20067;-68
2023/11/21 06:30:13;;;;;;;4.38;1.67;;;;;;;6.44;100.00;96201.53;5054202;28;20042;-68
2023/11/21 06:32:39;;;;;;;5.50;2.08;;;;;;;6.48;100.00;96207.06;5059117;28;20060;-68
2023/11/21 06:35:06;;;;;;;3.42;1.80;;;;;;;6.49;100.00;96205.94;5056281;28;20041;-67
2023/11/21 06:37:32;;;;;;;5.18;1.88;;;;;;;6.55;100.00;96206.47;5061626;28;20102;-68
2023/11/21 06:39:59;;;;;;;5.53;1.88;;;;;;;6.59;100.00;96210.06;5057853;28;20108;-68
2023/11/21 06:42:25;;;;;;;7.45;2.30;;;;;;;6.58;100.00;96206.56;5052134;28;20436;-69
2023/11/21 06:44:53;;;;;;;6.90;2.40;;;;;;;6.58;100.00;96209.28;5037691;28;20399;-69
2023/11/21 06:47:20;;;;;;;8.40;2.10;;;;;;;6.58;100.00;96212.00;5058861;28;20032;-69
2023/11/21 06:49:48;;;;;;;4.75;1.75;;;;;;;6.66;100.00;96218.38;5062180;28;20056;-68
2023/11/21 06:52:13;;;;;;;6.15;1.58;;;;;;;6.51;100.00;96214.53;5055918;28;20037;-69
2023/11/21 06:54:39;;;;;;;5.70;1.90;;;;;;;6.59;100.00;96215.50;5070404;28;20163;-70
2023/11/21 06:57:05;;;;;;;6.07;1.63;;;;;;;6.72;100.00;96227.06;5057567;28;20615;-68
2023/11/21 06:59:30;;;;;;;4.90;1.83;;;;;;;6.56;100.00;96229.81;5061894;28;20044;-70
2023/11/21 07:01:56;;;;;;;4.43;1.77;;;;;;;6.55;100.00;96229.00;5062753;28;20067;-69
2023/11/21 07:04:21;;;;;;;6.95;1.80;;;;;;;6.56;100.00;96222.44;5057893;28;20862;-70
2023/11/21 07:06:46;;;;;;;5.82;1.70;;;;;;;6.50;100.00;96224.66;5062993;28;20043;-69
2023/11/21 07:09:12;;;;;;;3.97;1.60;;;;;;;6.64;100.00;96228.84;5057643;28;20391;-69
2023/11/21 07:11:38;;;;;;;5.88;1.60;;;;;;;6.72;100.00;96232.50;5062791;28;20043;-68
2023/11/21 07:14:07;;;;;;;5.47;1.58;;;;;;;6.70;100.00;96227.44;5059297;28;20048;-67
2023/11/21 07:16:37;;;;;;;3.60;1.40;;;;;;;6.73;100.00;96229.44;5062226;28;20044;-68
2023/11/21 07:19:06;;;;;;;7.45;1.90;;;;;;;6.72;100.00;96229.78;5059633;28;20040;-68
2023/11/21 07:21:35;;;;;;;5.80;2.10;;;;;;;6.72;100.00;96232.50;5062571;28;20059;-69
2023/11/21 07:24:02;;;;;;;6.43;2.80;;;;;;;6.79;100.00;96232.69;5063379;28;20051;-68
2023/11/21 07:26:28;;;;;;;5.82;2.33;;;;;;;6.79;100.00;96232.69;5059747;28;20036;-69
2023/11/21 07:28:53;;;;;;;9.20;2.38;;;;;;;6.83;100.00;96230.84;5061707;28;20048;-69
2023/11/21 07:31:19;;;;;;;2.90;1.30;;;;;;;6.91;100.00;96229.84;5057254;28;20047;-67
2023/11/21 07:33:48;;;;;;;8.50;1.50;;;;;;;6.97;100.00;96233.91;5061619;28;20041;-68
2023/11/21 07:36:14;;;;;;;6.57;1.38;;;;;;;7.11;100.00;96230.69;5039385;28;20039;-67
2023/11/21 07:38:39;;;;;;;6.38;1.48;;;;;;;7.21;100.00;96230.16;5063866;28;20037;-69
2023/11/21 07:41:07;;;;;;;2.83;1.38;;;;;;;7.25;100.00;96232.94;5056848;28;20417;-68
2023/11/21 07:43:34;;;;;;;4.65;1.73;;;;;;;7.38;100.00;96242.59;5028513;28;20044;-68
2023/11/21 07:46:04;;;;;;;8.45;1.67;;;;;;;7.40;100.00;96244.94;5058983;28;20466;-68
2023/11/21 07:48:33;;;;;;;5.15;1.20;;;;;;;7.49;100.00;96244.72;5041854;28;20059;-68
2023/11/21 07:51:00;;;;;;;5.50;1.30;;;;;;;7.64;100.00;96238.44;5061574;28;20037;-68
2023/11/21 07:53:28;;;;;;;4.38;1.17;;;;;;;7.70;100.00;96244.38;5057102;28;20075;-69
2023/11/21 07:55:54;;;;;;;10.48;1.45;;;;;;;7.77;100.00;96244.53;5061658;28;20503;-70
2023/11/21 07:58:20;;;;;;;3.97;1.42;;;;;;;7.85;100.00;96246.25;5056162;28;20044;-69
2023/11/21 08:00:45;;;;;;;5.47;1.10;;;;;;;7.97;100.00;96242.56;5060832;28;20036;-68
2023/11/21 08:03:13;;;;;;;3.00;1.00;;;;;;;8.07;100.00;96242.00;5057944;28;20036;-69
2023/11/21 08:05:39;;;;;;;4.18;2.00;;;;;;;8.16;100.00;96244.50;5061360;28;20051;-68
2023/11/21 08:08:04;;;;;;;3.75;0.93;;;;;;;8.22;100.00;96240.31;5060559;28;20044;-69
2023/11/21 08:10:30;;;;;;;1.85;0.90;;;;;;;8.16;100.00;96244.50;5053049;28;20128;-69
2023/11/21 08:12:55;;;;;;;3.15;1.10;;;;;;;8.27;100.00;96236.50;5074744;28;20093;-69
2023/11/21 08:15:21;;;;;;;3.78;1.50;;;;;;;8.36;100.00;96239.78;5062302;28;20113;-69
2023/11/21 08:17:49;;;;;;;5.13;2.17;;;;;;;8.45;100.00;96234.91;5047761;28;20082;-68
2023/11/21 08:20:16;;;;;;;4.70;1.63;;;;;;;8.55;100.00;96242.50;5054207;28;20068;-69
2023/11/21 08:22:42;;;;;;;3.20;1.10;;;;;;;8.49;100.00;96246.66;5043206;28;20198;-69
2023/11/21 08:25:08;;;;;;;2.40;1.27;;;;;;;8.13;100.00;96250.66;5054919;28;20036;-69
2023/11/21 08:27:36;;;;;;;6.80;1.35;;;;;;;8.21;100.00;96245.00;5060385;28;20063;-69
2023/11/21 08:30:03;;;;;;;3.80;1.42;;;;;;;7.97;100.00;96261.66;5056358;28;20411;-69
2023/11/21 08:32:32;;;;;;;5.20;1.30;;;;;;;7.99;100.00;96259.34;5059522;28;20048;-69
2023/11/21 08:35:01;;;;;;;5.80;1.75;;;;;;;7.83;100.00;96259.44;5042512;28;20040;-69
2023/11/21 08:37:30;;;;;;;6.32;1.17;;;;;;;7.72;100.00;96259.22;5056702;28;20064;-69
2023/11/21 08:39:59;;;;;;;4.33;1.60;;;;;;;7.76;100.00;96259.28;5060666;28;20135;-68
2023/11/21 08:42:25;;;;;;;3.60;1.60;;;;;;;7.60;100.00;96264.84;5056208;28;20123;-68
2023/11/21 08:44:51;;;;;;;4.70;1.65;;;;;;;7.50;100.00;96268.91;5055787;28;20132;-68
2023/11/21 08:47:16;;;;;;;7.22;2.05;;;;;;;7.51;100.00;96269.69;5038052;28;20522;-69
2023/11/21 08:49:42;;;;;;;6.18;1.70;;;;;;;7.49;100.00;96274.69;5065350;28;20036;-68
2023/11/21 08:52:08;;;;;;;4.32;1.70;;;;;;;7.50;100.00;96277.06;5055689;28;20036;-69
2023/11/21 08:54:34;;;;;;;7.63;1.70;;;;;;;7.56;100.00;96275.66;5043260;28;20079;-69
2023/11/21 08:57:00;;;;;;;4.75;1.35;;;;;;;7.71;100.00;96275.97;5040672;28;20376;-69
2023/11/21 08:59:26;;;;;;;3.35;1.35;;;;;;;7.77;100.00;96274.50;5056157;28;20040;-68
2023/11/21 09:01:51;;;;;;;6.60;1.70;;;;;;;7.86;100.00;96275.09;5057022;28;20040;-68
2023/11/21 09:04:17;;;;;;;8.30;1.40;;;;;;;7.89;100.00;96274.38;5053003;28;20063;-68
2023/11/21 09:06:42;;;;;;;5.38;1.40;;;;;;;7.90;100.00;96278.66;5056574;28;20039;-69
2023/11/21 09:09:10;;;;;;;9.57;2.13;;;;;;;7.82;100.00;96275.00;5054195;28;20064;-67
2023/11/21 09:11:36;;;;;;;3.78;1.65;;;;;;;7.72;100.00;96277.53;5041826;28;20094;-68
2023/11/21 09:14:03;;;;;;;6.00;1.45;;;;;;;7.91;100.00;96287.66;5062793;28;20040;-68
2023/11/21 09:16:29;;;;;;;3.13;1.52;;;;;;;7.91;100.00;96288.44;5036546;28;20040;-69
2023/11/21 09:18:58;;;;;;;4.20;1.88;;;;;;;7.95;100.00;96281.09;5063695;28;20051;-69
2023/11/21 09:21:24;;;;;;;4.55;1.50;;;;;;;8.15;100.00;96295.50;5035620;28;20629;-69
2023/11/21 09:23:50;;;;;;;5.63;1.35;;;;;;;8.04;100.00;96292.59;5058931;28;20040;-67
2023/11/21 09:26:16;;;;;;;6.18;2.00;;;;;;;7.95;100.00;96293.97;5052005;28;20040;-69
2023/11/21 09:28:46;;;;;;;6.32;2.05;;;;;;;8.12;100.00;96290.00;5048265;28;20091;-69
2023/11/21 09:31:11;;;;;;;4.95;1.55;;;;;;;8.23;100.00;96299.97;5036595;28;20040;-69
2023/11/21 09:33:38;;;;;;;5.05;1.50;;;;;;;7.95;100.00;96297.47;5071175;28;20462;-70
2023/11/21 09:36:04;;;;;;;6.03;1.52;;;;;;;7.87;100.00;96298.50;5066382;28;20041;-68
2023/11/21 09:38:31;;;;;;;3.42;1.75;;;;;;;7.78;100.00;96300.66;5060027;28;20044;-68
2023/11/21 09:40:59;;;;;;;7.25;1.80;;;;;;;7.91;100.00;96296.63;5058720;28;20123;-68
2023/11/21 09:43:28;;;;;;;9.50;1.60;;;;;;;7.78;100.00;96303.38;5056164;28;20049;-68
2023/11/21 09:46:02;;;;;;;5.68;1.95;;;;;;;7.79;100.00;96300.25;5052176;28;20044;-69
2023/11/21 09:48:30;;;;;;;9.40;2.28;;;;;;;7.84;100.00;96302.72;5048169;28;20059;-68
2023/11/21 09:50:57;;;;;;;5.05;1.42;;;;;;;7.76;100.00;96301.00;5059109;28;20045;-69
2023/11/21 09:53:24;;;;;;;4.30;1.60;;;;;;;7.94;100.00;96298.63;5037317;28;20226;-69
2023/11/21 09:55:52;;;;;;;4.72;1.60;;;;;;;8.12;100.00;96295.44;5058722;28;20044;-68
2023/11/21 09:58:19;;;;;;;2.97;1.40;;;;;;;8.29;100.00;96294.22;5054938;28;20120;-68
2023/11/21 10:00:49;;;;;;;3.40;1.50;;;;;;;8.22;100.00;96292.94;5059229;28;20045;-68
2023/11/21 10:03:17;;;;;;;5.95;1.50;;;;;;;8.14;100.00;96296.69;5043948;28;20032;-68
2023/11/21 10:05:45;;;;;;;5.18;2.03;;;;;;;8.33;100.00;96292.34;5059191;28;20391;-68
2023/11/21 10:08:12;;;;;;;3.05;1.65;;;;;;;8.37;100.00;96294.00;5054501;28;20040;-68
2023/11/21 10:10:47;;;;;;;2.63;1.55;;;;;;;8.67;100.00;96292.59;5041252;28;20542;-69
2023/11/21 10:13:16;;;;;;;6.47;1.70;;;;;;;8.72;100.00;96293.06;5044020;28;20048;-69
2023/11/21 10:15:48;;;;;;;2.63;1.50;;;;;;;8.87;100.00;96294.09;5058620;28;20119;-69
2023/11/21 10:18:15;;;;;;;5.10;1.73;;;;;;;9.06;100.00;96306.13;5035557;28;20090;-69
2023/11/21 10:20:40;;;;;;;3.10;1.55;;;;;;;8.93;100.00;96300.03;5058089;28;20048;-68
2023/11/21 10:23:11;;;;;;;4.43;1.70;;;;;;;8.98;100.00;96297.00;5052989;28;20037;-69
2023/11/21 10:25:36;;;;;;;4.05;1.58;;;;;;;8.88;100.00;96290.22;5059072;28;20043;-68
2023/11/21 10:28:07;;;;;;;8.75;1.70;;;;;;;8.91;100.00;96294.97;5056979;28;20142;-69
2023/11/21 10:30:36;;;;;;;1.98;1.25;;;;;;;9.07;100.00;96296.75;5058710;28;20140;-69
2023/11/21 10:33:03;;;;;;;4.38;1.10;;;;;;;8.88;100.00;96297.63;5039045;28;20047;-69
2023/11/21 10:35:50;;;;;;;14.98;1.45;;;;;;;8.83;100.00;96290.53;5056842;28;20135;-69
2023/11/21 10:38:16;;;;;;;5.30;1.20;;;;;;;9.05;100.00;96282.66;5050315;28;20052;-70
2023/11/21 10:40:42;;;;;;;17.23;1.90;;;;;;;9.18;100.00;96284.84;5034490;28;20036;-69
2023/11/21 10:43:14;;;;;;;5.65;1.38;;;;;;;9.31;100.00;96287.34;5061699;28;20108;-69
2023/11/21 10:45:40;;;;;;;3.28;1.50;;;;;;;9.18;100.00;96279.38;5054608;28;20067;-69
2023/11/21 10:48:15;;;;;;;5.70;1.83;;;;;;;9.25;100.00;96283.34;5054581;28;20055;-67
2023/11/21 10:50:43;;;;;;;4.93;2.20;;;;;;;9.11;100.00;96290.19;5061915;28;20131;-69
2023/11/21 10:53:11;;;;;;;5.50;1.30;;;;;;;9.17;100.00;96282.47;5070589;28;20032;-71
2023/11/21 10:55:37;;;;;;;4.95;1.50;;;;;;;9.28;100.00;96285.38;5048647;28;20099;-70
2023/11/21 10:58:04;;;;;;;9.15;1.70;;;;;;;9.26;100.00;96284.94;5059507;28;20784;-71
2023/11/21 11:00:31;;;;;;;4.05;1.27;;;;;;;9.21;100.00;96280.56;5059389;28;20070;-68
2023/11/21 11:02:58;;;;;;;7.45;1.63;;;;;;;9.06;100.00;96282.31;5041066;28;20071;-68
2023/11/21 11:05:32;;;;;;;4.45;1.52;;;;;;;8.96;100.00;96280.19;5034074;28;20432;-69
2023/11/21 11:08:11;;;;;;;5.60;1.90;;;;;;;8.80;100.00;96280.31;5039996;28;20119;-70
2023/11/21 11:10:37;;;;;;;8.35;2.33;;;;;;;9.11;100.00;96278.47;5059656;28;20045;-69
2023/11/21 11:13:04;;;;;;;5.95;2.20;;;;;;;9.18;100.00;96278.56;5055039;28;20043;-69
2023/11/21 11:15:29;;;;;;;5.30;1.85;;;;;;;9.23;100.00;96281.00;5039622;28;20578;-67
2023/11/21 11:17:58;;;;;;;5.05;1.55;;;;;;;9.36;100.00;96281.56;5059434;28;20051;-68
2023/11/21 11:20:30;;;;;;;4.37;1.50;;;;;;;9.13;100.00;96285.16;5054355;28;20553;-69
2023/11/21 11:23:17;;;;;;;3.58;1.42;;;;;;;9.21;100.00;96286.03;5047541;28;20032;-68
2023/11/21 11:26:20;;;;;;;7.20;2.47;;;;;;;9.24;100.00;96281.78;5057483;28;20491;-68
2023/11/21 11:29:12;;;;;;;8.57;2.28;;;;;;;9.27;100.00;96273.63;5033697;28;20045;-68